sensor_id;sensor_type;location;lat;lon;timestamp;P1;durP1;ratioP1;P2;durP2;ratioP2
31732;SDS011;18312;51.486;7.144;2022-09-25T11:30:58;3.65;;;0.50;;
31732;SDS011;18312;51.486;7.144;2022-09-25T11:33:32;6.22;;;0.60;;
31732;SDS011;18312;51.486;7.144;2022-09-25T11:36:07;4.20;;;1.35;;
31732;SDS011;18312;51.486;7.144;2022-09-25T11:38:40;5.88;;;1.10;;
31732;SDS011;18312;51.486;7.144;2022-09-25T11:41:30;3.13;;;0.45;;
31732;SDS011;18312;51.486;7.144;2022-09-25T11:44:10;1.38;;;0.17;;
31732;SDS011;18312;51.486;7.144;2022-09-25T11:46:46;3.92;;;0.70;;
31732;SDS011;18312;51.486;7.144;2022-09-25T11:49:21;2.30;;;0.32;;
31732;SDS011;18312;51.486;7.144;2022-09-25T11:52:13;1.30;;;0.28;;
31732;SDS011;18312;51.486;7.144;2022-09-25T11:55:15;1.30;;;0.40;;
31732;SDS011;18312;51.486;7.144;2022-09-25T11:58:08;1.88;;;0.20;;
31732;SDS011;18312;51.486;7.144;2022-09-25T12:00:47;0.93;;;0.30;;
31732;SDS011;18312;51.486;7.144;2022-09-25T12:03:30;3.70;;;0.50;;
31732;SDS011;18312;51.486;7.144;2022-09-25T12:06:16;0.45;;;0.32;;
31732;SDS011;18312;51.486;7.144;2022-09-25T12:08:55;2.28;;;0.60;;
31732;SDS011;18312;51.486;7.144;2022-09-25T12:11:32;3.03;;;0.60;;
31732;SDS011;18312;51.486;7.144;2022-09-25T12:14:11;3.00;;;0.40;;
31732;SDS011;18312;51.486;7.144;2022-09-25T12:16:47;0.57;;;0.20;;
31732;SDS011;18312;51.486;7.144;2022-09-25T12:19:27;1.20;;;0.73;;
31732;SDS011;18312;51.486;7.144;2022-09-25T12:24:39;1.95;;;0.32;;
31732;SDS011;18312;51.486;7.144;2022-09-25T12:27:18;1.30;;;0.30;;
31732;SDS011;18312;51.486;7.144;2022-09-25T12:29:54;1.70;;;0.30;;
31732;SDS011;18312;51.486;7.144;2022-09-25T12:32:34;2.75;;;0.60;;
31732;SDS011;18312;51.486;7.144;2022-09-25T12:35:22;1.70;;;0.40;;
31732;SDS011;18312;51.486;7.144;2022-09-25T12:37:58;3.35;;;0.50;;
31732;SDS011;18312;51.486;7.144;2022-09-25T12:40:30;3.17;;;0.25;;
31732;SDS011;18312;51.486;7.144;2022-09-25T12:43:02;1.90;;;0.40;;
31732;SDS011;18312;51.486;7.144;2022-09-25T12:45:33;3.53;;;0.47;;
31732;SDS011;18312;51.486;7.144;2022-09-25T12:48:08;3.05;;;0.28;;
31732;SDS011;18312;51.486;7.144;2022-09-25T12:50:42;3.35;;;0.30;;
31732;SDS011;18312;51.486;7.144;2022-09-25T12:53:20;2.22;;;0.43;;
31732;SDS011;18312;51.486;7.144;2022-09-25T12:55:51;1.67;;;0.30;;
31732;SDS011;18312;51.486;7.144;2022-09-25T12:58:24;2.10;;;0.25;;
31732;SDS011;18312;51.486;7.144;2022-09-25T13:01:03;6.03;;;0.50;;
31732;SDS011;18312;51.486;7.144;2022-09-25T13:03:40;0.63;;;0.38;;
31732;SDS011;18312;51.486;7.144;2022-09-25T13:06:15;2.30;;;0.47;;
31732;SDS011;18312;51.486;7.144;2022-09-25T13:08:49;0.50;;;0.20;;
31732;SDS011;18312;51.486;7.144;2022-09-25T13:11:25;1.13;;;0.30;;
31732;SDS011;18312;51.486;7.144;2022-09-25T13:13:58;0.98;;;0.20;;
31732;SDS011;18312;51.486;7.144;2022-09-25T13:16:27;3.17;;;0.40;;
31732;SDS011;18312;51.486;7.144;2022-09-25T13:19:10;1.88;;;0.32;;
31732;SDS011;18312;51.486;7.144;2022-09-25T13:21:49;5.72;;;0.75;;
31732;SDS011;18312;51.486;7.144;2022-09-25T13:24:16;0.25;;;0.20;;
31732;SDS011;18312;51.486;7.144;2022-09-25T13:26:44;0.65;;;0.20;;
31732;SDS011;18312;51.486;7.144;2022-09-25T13:29:19;4.03;;;0.70;;
31732;SDS011;18312;51.486;7.144;2022-09-25T13:31:48;0.52;;;0.10;;
31732;SDS011;18312;51.486;7.144;2022-09-25T13:34:20;2.40;;;0.20;;
31732;SDS011;18312;51.486;7.144;2022-09-25T13:36:57;0.32;;;0.20;;
31732;SDS011;18312;51.486;7.144;2022-09-25T13:39:29;2.33;;;0.40;;
31732;SDS011;18312;51.486;7.144;2022-09-25T13:42:19;0.57;;;0.32;;
31732;SDS011;18312;51.486;7.144;2022-09-25T13:44:49;3.42;;;0.40;;
31732;SDS011;18312;51.486;7.144;2022-09-25T13:47:57;3.85;;;0.55;;
31732;SDS011;18312;51.486;7.144;2022-09-25T13:50:30;2.00;;;0.40;;
31732;SDS011;18312;51.486;7.144;2022-09-25T13:53:11;4.22;;;0.30;;
31732;SDS011;18312;51.486;7.144;2022-09-25T14:01:33;1.58;;;0.38;;
31732;SDS011;18312;51.486;7.144;2022-09-25T14:04:08;4.65;;;0.50;;
31732;SDS011;18312;51.486;7.144;2022-09-25T14:06:36;2.25;;;0.50;;
31732;SDS011;18312;51.486;7.144;2022-09-25T14:09:08;6.45;;;0.30;;
31732;SDS011;18312;51.486;7.144;2022-09-25T14:11:36;2.67;;;0.43;;
31732;SDS011;18312;51.486;7.144;2022-09-25T14:14:05;4.90;;;0.38;;
31732;SDS011;18312;51.486;7.144;2022-09-25T14:19:04;2.03;;;0.40;;
31732;SDS011;18312;51.486;7.144;2022-09-25T14:21:32;2.65;;;0.50;;
31732;SDS011;18312;51.486;7.144;2022-09-25T14:24:11;1.23;;;0.40;;
31732;SDS011;18312;51.486;7.144;2022-09-25T14:26:45;3.88;;;0.35;;
31732;SDS011;18312;51.486;7.144;2022-09-25T14:29:14;2.50;;;0.50;;
31732;SDS011;18312;51.486;7.144;2022-09-25T14:31:44;1.50;;;0.50;;
31732;SDS011;18312;51.486;7.144;2022-09-25T14:34:25;3.17;;;0.50;;
31732;SDS011;18312;51.486;7.144;2022-09-25T14:37:07;2.47;;;0.50;;
31732;SDS011;18312;51.486;7.144;2022-09-25T14:39:50;2.92;;;0.30;;
31732;SDS011;18312;51.486;7.144;2022-09-25T14:42:34;3.03;;;0.40;;
31732;SDS011;18312;51.486;7.144;2022-09-25T14:45:23;1.02;;;0.43;;
31732;SDS011;18312;51.486;7.144;2022-09-25T14:48:17;3.03;;;0.30;;
31732;SDS011;18312;51.486;7.144;2022-09-25T14:50:48;0.60;;;0.30;;
31732;SDS011;18312;51.486;7.144;2022-09-25T14:53:20;1.75;;;0.50;;
31732;SDS011;18312;51.486;7.144;2022-09-25T14:55:53;2.92;;;0.38;;
31732;SDS011;18312;51.486;7.144;2022-09-25T14:58:22;1.92;;;0.40;;
31732;SDS011;18312;51.486;7.144;2022-09-25T15:00:52;3.45;;;0.30;;
31732;SDS011;18312;51.486;7.144;2022-09-25T15:08:19;2.15;;;0.20;;
31732;SDS011;18312;51.486;7.144;2022-09-25T15:10:48;2.03;;;0.40;;
31732;SDS011;18312;51.486;7.144;2022-09-25T15:13:27;3.05;;;0.38;;
31732;SDS011;18312;51.486;7.144;2022-09-25T15:18:43;1.23;;;0.52;;
31732;SDS011;18312;51.486;7.144;2022-09-25T15:21:17;4.78;;;0.45;;
31732;SDS011;18312;51.486;7.144;2022-09-25T15:23:49;5.03;;;0.70;;
31732;SDS011;18312;51.486;7.144;2022-09-25T15:26:18;1.85;;;0.40;;
31732;SDS011;18312;51.486;7.144;2022-09-25T15:28:46;2.03;;;0.47;;
31732;SDS011;18312;51.486;7.144;2022-09-25T15:31:15;0.57;;;0.40;;
31732;SDS011;18312;51.486;7.144;2022-09-25T15:33:42;2.50;;;0.40;;
31732;SDS011;18312;51.486;7.144;2022-09-25T15:36:14;1.77;;;0.35;;
31732;SDS011;18312;51.486;7.144;2022-09-25T15:38:42;2.78;;;0.47;;
31732;SDS011;18312;51.486;7.144;2022-09-25T15:41:11;1.08;;;0.40;;
31732;SDS011;18312;51.486;7.144;2022-09-25T15:43:41;1.92;;;0.38;;
31732;SDS011;18312;51.486;7.144;2022-09-25T15:49:02;1.60;;;0.30;;
31732;SDS011;18312;51.486;7.144;2022-09-25T15:51:31;2.53;;;0.50;;
31732;SDS011;18312;51.486;7.144;2022-09-25T15:54:00;3.55;;;0.90;;
31732;SDS011;18312;51.486;7.144;2022-09-25T15:56:29;2.53;;;0.50;;
31732;SDS011;18312;51.486;7.144;2022-09-25T15:59:14;0.93;;;0.45;;
31732;SDS011;18312;51.486;7.144;2022-09-25T16:01:44;1.38;;;0.30;;
31732;SDS011;18312;51.486;7.144;2022-09-25T16:04:29;2.67;;;0.50;;
31732;SDS011;18312;51.486;7.144;2022-09-25T16:07:21;1.95;;;0.40;;
31732;SDS011;18312;51.486;7.144;2022-09-25T16:09:50;1.85;;;0.50;;
31732;SDS011;18312;51.486;7.144;2022-09-25T16:12:20;8.77;;;0.80;;
31732;SDS011;18312;51.486;7.144;2022-09-25T16:14:53;5.57;;;0.70;;
31732;SDS011;18312;51.486;7.144;2022-09-25T16:17:21;2.92;;;0.60;;
31732;SDS011;18312;51.486;7.144;2022-09-25T16:22:28;1.83;;;0.45;;
31732;SDS011;18312;51.486;7.144;2022-09-25T16:25:17;0.98;;;0.50;;
31732;SDS011;18312;51.486;7.144;2022-09-25T16:30:19;3.17;;;0.70;;
31732;SDS011;18312;51.486;7.144;2022-09-25T16:32:48;1.52;;;0.43;;
31732;SDS011;18312;51.486;7.144;2022-09-25T16:35:21;1.60;;;0.70;;
31732;SDS011;18312;51.486;7.144;2022-09-25T16:37:50;1.35;;;0.45;;
31732;SDS011;18312;51.486;7.144;2022-09-25T16:40:20;3.55;;;0.40;;
31732;SDS011;18312;51.486;7.144;2022-09-25T16:42:49;1.65;;;0.30;;
31732;SDS011;18312;51.486;7.144;2022-09-25T16:45:19;2.50;;;0.32;;
31732;SDS011;18312;51.486;7.144;2022-09-25T16:47:48;2.03;;;0.40;;
31732;SDS011;18312;51.486;7.144;2022-09-25T16:50:15;2.88;;;0.38;;
31732;SDS011;18312;51.486;7.144;2022-09-25T16:52:43;2.65;;;0.40;;
31732;SDS011;18312;51.486;7.144;2022-09-25T16:55:15;2.28;;;0.57;;
31732;SDS011;18312;51.486;7.144;2022-09-25T16:57:45;0.60;;;0.40;;
31732;SDS011;18312;51.486;7.144;2022-09-25T17:00:12;3.08;;;0.80;;
31732;SDS011;18312;51.486;7.144;2022-09-25T17:02:42;1.40;;;0.50;;
31732;SDS011;18312;51.486;7.144;2022-09-25T17:05:11;2.90;;;0.60;;
31732;SDS011;18312;51.486;7.144;2022-09-25T17:07:42;8.20;;;0.95;;
31732;SDS011;18312;51.486;7.144;2022-09-25T17:10:11;3.05;;;0.77;;
31732;SDS011;18312;51.486;7.144;2022-09-25T17:12:39;3.83;;;0.57;;
31732;SDS011;18312;51.486;7.144;2022-09-25T17:15:09;1.55;;;0.63;;
31732;SDS011;18312;51.486;7.144;2022-09-25T17:17:56;4.07;;;0.88;;
31732;SDS011;18312;51.486;7.144;2022-09-25T17:20:24;1.67;;;0.60;;
31732;SDS011;18312;51.486;7.144;2022-09-25T17:22:52;4.15;;;0.80;;
31732;SDS011;18312;51.486;7.144;2022-09-25T17:25:21;2.03;;;0.50;;
31732;SDS011;18312;51.486;7.144;2022-09-25T17:27:56;1.88;;;0.60;;
31732;SDS011;18312;51.486;7.144;2022-09-25T17:30:23;3.75;;;1.00;;
31732;SDS011;18312;51.486;7.144;2022-09-25T17:32:52;2.45;;;0.80;;
31732;SDS011;18312;51.486;7.144;2022-09-25T17:35:43;3.35;;;1.33;;
31732;SDS011;18312;51.486;7.144;2022-09-25T17:38:12;3.65;;;0.88;;
31732;SDS011;18312;51.486;7.144;2022-09-25T17:40:40;4.85;;;1.20;;
31732;SDS011;18312;51.486;7.144;2022-09-25T17:43:08;3.03;;;0.85;;
31732;SDS011;18312;51.486;7.144;2022-09-25T17:45:37;3.70;;;0.90;;
31732;SDS011;18312;51.486;7.144;2022-09-25T17:48:10;3.00;;;0.98;;
31732;SDS011;18312;51.486;7.144;2022-09-25T17:50:38;3.13;;;1.10;;
31732;SDS011;18312;51.486;7.144;2022-09-25T17:53:06;3.45;;;0.85;;
31732;SDS011;18312;51.486;7.144;2022-09-25T17:55:41;2.65;;;1.10;;
31732;SDS011;18312;51.486;7.144;2022-09-25T17:58:07;6.68;;;1.40;;
31732;SDS011;18312;51.486;7.144;2022-09-25T18:00:34;1.85;;;1.05;;
31732;SDS011;18312;51.486;7.144;2022-09-25T18:03:01;4.78;;;1.15;;
31732;SDS011;18312;51.486;7.144;2022-09-25T18:05:28;5.97;;;0.90;;
31732;SDS011;18312;51.486;7.144;2022-09-25T18:07:57;1.98;;;1.02;;
31732;SDS011;18312;51.486;7.144;2022-09-25T18:10:24;4.25;;;1.20;;
31732;SDS011;18312;51.486;7.144;2022-09-25T18:12:52;4.32;;;1.40;;
31732;SDS011;18312;51.486;7.144;2022-09-25T18:15:19;4.38;;;1.00;;
31732;SDS011;18312;51.486;7.144;2022-09-25T18:17:46;2.00;;;1.25;;
31732;SDS011;18312;51.486;7.144;2022-09-25T18:20:13;2.33;;;1.27;;
31732;SDS011;18312;51.486;7.144;2022-09-25T18:22:58;2.50;;;1.15;;
31732;SDS011;18312;51.486;7.144;2022-09-25T18:25:25;2.83;;;0.88;;
31732;SDS011;18312;51.486;7.144;2022-09-25T18:27:52;4.45;;;1.13;;
31732;SDS011;18312;51.486;7.144;2022-09-25T18:30:19;7.50;;;1.50;;
31732;SDS011;18312;51.486;7.144;2022-09-25T18:32:48;3.13;;;1.20;;
31732;SDS011;18312;51.486;7.144;2022-09-25T18:35:15;4.88;;;1.35;;
31732;SDS011;18312;51.486;7.144;2022-09-25T18:37:42;5.57;;;0.90;;
31732;SDS011;18312;51.486;7.144;2022-09-25T18:40:12;4.47;;;0.90;;
31732;SDS011;18312;51.486;7.144;2022-09-25T18:42:40;4.03;;;1.40;;
31732;SDS011;18312;51.486;7.144;2022-09-25T18:45:07;4.97;;;1.05;;
31732;SDS011;18312;51.486;7.144;2022-09-25T18:47:36;6.78;;;1.98;;
31732;SDS011;18312;51.486;7.144;2022-09-25T18:50:03;3.88;;;1.13;;
31732;SDS011;18312;51.486;7.144;2022-09-25T18:52:30;6.72;;;1.67;;
31732;SDS011;18312;51.486;7.144;2022-09-25T18:54:57;5.82;;;1.50;;
31732;SDS011;18312;51.486;7.144;2022-09-25T18:57:26;4.20;;;1.40;;
31732;SDS011;18312;51.486;7.144;2022-09-25T18:59:53;1.42;;;0.90;;
31732;SDS011;18312;51.486;7.144;2022-09-25T19:02:21;6.38;;;1.83;;
31732;SDS011;18312;51.486;7.144;2022-09-25T19:04:49;4.38;;;1.88;;
31732;SDS011;18312;51.486;7.144;2022-09-25T19:07:18;5.45;;;2.33;;
31732;SDS011;18312;51.486;7.144;2022-09-25T19:09:45;4.22;;;1.80;;
31732;SDS011;18312;51.486;7.144;2022-09-25T19:12:12;5.35;;;1.58;;
31732;SDS011;18312;51.486;7.144;2022-09-25T19:14:41;5.45;;;1.63;;
31732;SDS011;18312;51.486;7.144;2022-09-25T19:17:08;5.00;;;1.65;;
31732;SDS011;18312;51.486;7.144;2022-09-25T19:19:35;4.13;;;1.70;;
31732;SDS011;18312;51.486;7.144;2022-09-25T19:22:05;8.75;;;2.17;;
31732;SDS011;18312;51.486;7.144;2022-09-25T19:24:32;7.22;;;1.73;;
31732;SDS011;18312;51.486;7.144;2022-09-25T19:27:06;5.22;;;1.67;;
31732;SDS011;18312;51.486;7.144;2022-09-25T19:29:34;4.78;;;2.20;;
31732;SDS011;18312;51.486;7.144;2022-09-25T19:32:03;5.60;;;1.65;;
31732;SDS011;18312;51.486;7.144;2022-09-25T19:34:31;5.90;;;1.80;;
31732;SDS011;18312;51.486;7.144;2022-09-25T19:36:58;5.32;;;1.60;;
31732;SDS011;18312;51.486;7.144;2022-09-25T19:39:25;7.43;;;2.10;;
31732;SDS011;18312;51.486;7.144;2022-09-25T19:41:52;7.60;;;1.85;;
31732;SDS011;18312;51.486;7.144;2022-09-25T19:44:19;6.38;;;1.63;;
31732;SDS011;18312;51.486;7.144;2022-09-25T19:46:46;2.97;;;1.48;;
31732;SDS011;18312;51.486;7.144;2022-09-25T19:49:15;4.50;;;1.73;;
31732;SDS011;18312;51.486;7.144;2022-09-25T19:51:43;5.82;;;1.73;;
31732;SDS011;18312;51.486;7.144;2022-09-25T19:54:11;4.32;;;1.92;;
31732;SDS011;18312;51.486;7.144;2022-09-25T19:56:39;3.58;;;1.70;;
31732;SDS011;18312;51.486;7.144;2022-09-25T19:59:07;5.68;;;2.40;;
31732;SDS011;18312;51.486;7.144;2022-09-25T20:01:36;3.30;;;1.75;;
31732;SDS011;18312;51.486;7.144;2022-09-25T20:04:03;3.63;;;1.70;;
31732;SDS011;18312;51.486;7.144;2022-09-25T20:06:33;7.85;;;2.60;;
31732;SDS011;18312;51.486;7.144;2022-09-25T20:09:01;7.43;;;2.00;;
31732;SDS011;18312;51.486;7.144;2022-09-25T20:11:29;5.32;;;2.15;;
31732;SDS011;18312;51.486;7.144;2022-09-25T20:13:56;5.82;;;2.10;;
31732;SDS011;18312;51.486;7.144;2022-09-25T20:16:24;9.80;;;2.15;;
31732;SDS011;18312;51.486;7.144;2022-09-25T20:18:53;7.83;;;2.27;;
31732;SDS011;18312;51.486;7.144;2022-09-25T20:21:21;5.32;;;1.90;;
31732;SDS011;18312;51.486;7.144;2022-09-25T20:23:50;7.38;;;2.42;;
31732;SDS011;18312;51.486;7.144;2022-09-25T20:26:18;10.00;;;2.13;;
31732;SDS011;18312;51.486;7.144;2022-09-25T20:28:50;5.05;;;2.10;;
31732;SDS011;18312;51.486;7.144;2022-09-25T20:31:18;4.00;;;2.00;;
31732;SDS011;18312;51.486;7.144;2022-09-25T20:33:45;4.80;;;2.72;;
31732;SDS011;18312;51.486;7.144;2022-09-25T20:36:13;7.65;;;2.78;;
31732;SDS011;18312;51.486;7.144;2022-09-25T20:38:40;6.85;;;2.58;;
31732;SDS011;18312;51.486;7.144;2022-09-25T20:41:10;5.90;;;2.58;;
31732;SDS011;18312;51.486;7.144;2022-09-25T20:43:38;5.37;;;2.40;;
31732;SDS011;18312;51.486;7.144;2022-09-25T20:46:07;4.20;;;2.17;;
31732;SDS011;18312;51.486;7.144;2022-09-25T20:48:36;3.67;;;2.22;;
31732;SDS011;18312;51.486;7.144;2022-09-25T20:51:05;4.57;;;2.63;;
31732;SDS011;18312;51.486;7.144;2022-09-25T20:53:33;6.30;;;2.65;;
31732;SDS011;18312;51.486;7.144;2022-09-25T20:56:03;6.68;;;2.55;;
31732;SDS011;18312;51.486;7.144;2022-09-25T20:58:32;5.03;;;2.72;;
31732;SDS011;18312;51.486;7.144;2022-09-25T21:01:00;6.87;;;3.20;;
31732;SDS011;18312;51.486;7.144;2022-09-25T21:03:28;4.20;;;2.40;;
31732;SDS011;18312;51.486;7.144;2022-09-25T21:05:58;5.68;;;2.67;;
31732;SDS011;18312;51.486;7.144;2022-09-25T21:08:25;4.00;;;3.13;;
31732;SDS011;18312;51.486;7.144;2022-09-25T21:10:52;7.60;;;2.72;;
31732;SDS011;18312;51.486;7.144;2022-09-25T21:13:19;5.20;;;2.80;;
31732;SDS011;18312;51.486;7.144;2022-09-25T21:15:47;9.07;;;3.28;;
31732;SDS011;18312;51.486;7.144;2022-09-25T21:18:14;6.82;;;2.20;;
31732;SDS011;18312;51.486;7.144;2022-09-25T21:20:41;3.97;;;2.60;;
31732;SDS011;18312;51.486;7.144;2022-09-25T21:23:08;6.22;;;2.60;;
31732;SDS011;18312;51.486;7.144;2022-09-25T21:25:34;4.78;;;2.63;;
31732;SDS011;18312;51.486;7.144;2022-09-25T21:28:01;5.47;;;2.45;;
31732;SDS011;18312;51.486;7.144;2022-09-25T21:30:28;5.00;;;2.45;;
31732;SDS011;18312;51.486;7.144;2022-09-25T21:32:57;6.10;;;2.08;;
31732;SDS011;18312;51.486;7.144;2022-09-25T21:35:24;6.45;;;2.83;;
31732;SDS011;18312;51.486;7.144;2022-09-25T21:37:51;6.60;;;2.72;;
31732;SDS011;18312;51.486;7.144;2022-09-25T21:40:18;5.15;;;2.60;;
31732;SDS011;18312;51.486;7.144;2022-09-25T21:42:44;5.20;;;2.38;;
31732;SDS011;18312;51.486;7.144;2022-09-25T21:45:11;2.95;;;2.00;;
31732;SDS011;18312;51.486;7.144;2022-09-25T21:47:38;3.65;;;2.30;;
31732;SDS011;18312;51.486;7.144;2022-09-25T21:50:06;6.10;;;2.45;;
31732;SDS011;18312;51.486;7.144;2022-09-25T21:52:34;3.88;;;2.80;;
31732;SDS011;18312;51.486;7.144;2022-09-25T21:55:04;5.22;;;2.50;;
31732;SDS011;18312;51.486;7.144;2022-09-25T21:57:32;3.83;;;2.70;;
31732;SDS011;18312;51.486;7.144;2022-09-25T21:59:58;6.93;;;2.58;;
31732;SDS011;18312;51.486;7.144;2022-09-25T22:02:27;5.57;;;2.88;;
31732;SDS011;18312;51.486;7.144;2022-09-25T22:04:54;3.45;;;2.28;;
31732;SDS011;18312;51.486;7.144;2022-09-25T22:07:22;6.45;;;2.38;;
31732;SDS011;18312;51.486;7.144;2022-09-25T22:09:49;8.52;;;2.42;;
31732;SDS011;18312;51.486;7.144;2022-09-25T22:12:16;12.40;;;2.60;;
31732;SDS011;18312;51.486;7.144;2022-09-25T22:14:42;4.03;;;1.88;;
31732;SDS011;18312;51.486;7.144;2022-09-25T22:17:09;4.25;;;2.47;;
31732;SDS011;18312;51.486;7.144;2022-09-25T22:19:36;7.47;;;2.35;;
31732;SDS011;18312;51.486;7.144;2022-09-25T22:22:03;9.48;;;2.90;;
31732;SDS011;18312;51.486;7.144;2022-09-25T22:24:31;4.95;;;2.70;;
31732;SDS011;18312;51.486;7.144;2022-09-25T22:26:57;7.80;;;3.08;;
31732;SDS011;18312;51.486;7.144;2022-09-25T22:29:24;7.35;;;2.90;;
31732;SDS011;18312;51.486;7.144;2022-09-25T22:31:51;5.13;;;2.40;;
31732;SDS011;18312;51.486;7.144;2022-09-25T22:34:18;6.97;;;2.00;;
31732;SDS011;18312;51.486;7.144;2022-09-25T22:36:46;4.55;;;2.70;;
31732;SDS011;18312;51.486;7.144;2022-09-25T22:39:14;3.63;;;2.20;;
31732;SDS011;18312;51.486;7.144;2022-09-25T22:41:44;7.18;;;2.53;;
31732;SDS011;18312;51.486;7.144;2022-09-25T22:44:14;5.07;;;2.15;;
31732;SDS011;18312;51.486;7.144;2022-09-25T22:46:41;6.10;;;2.58;;
31732;SDS011;18312;51.486;7.144;2022-09-25T22:49:08;5.38;;;1.83;;
31732;SDS011;18312;51.486;7.144;2022-09-25T22:51:34;3.75;;;2.30;;
31732;SDS011;18312;51.486;7.144;2022-09-25T22:54:01;6.03;;;2.08;;
31732;SDS011;18312;51.486;7.144;2022-09-25T22:56:29;6.68;;;2.22;;
31732;SDS011;18312;51.486;7.144;2022-09-25T22:58:59;6.18;;;2.08;;
31732;SDS011;18312;51.486;7.144;2022-09-25T23:03:57;5.53;;;1.90;;
31732;SDS011;18312;51.486;7.144;2022-09-25T23:06:25;7.07;;;2.28;;
31732;SDS011;18312;51.486;7.144;2022-09-25T23:08:53;5.95;;;2.20;;
31732;SDS011;18312;51.486;7.144;2022-09-25T23:11:22;5.43;;;2.10;;
31732;SDS011;18312;51.486;7.144;2022-09-25T23:13:54;4.95;;;2.30;;
31732;SDS011;18312;51.486;7.144;2022-09-25T23:16:23;4.63;;;2.20;;
31732;SDS011;18312;51.486;7.144;2022-09-25T23:18:50;6.90;;;2.33;;
31732;SDS011;18312;51.486;7.144;2022-09-25T23:21:17;8.52;;;2.47;;
31732;SDS011;18312;51.486;7.144;2022-09-25T23:23:44;6.97;;;2.22;;
31732;SDS011;18312;51.486;7.144;2022-09-25T23:26:11;5.30;;;2.20;;
31732;SDS011;18312;51.486;7.144;2022-09-25T23:28:38;6.78;;;2.30;;
31732;SDS011;18312;51.486;7.144;2022-09-25T23:31:06;3.97;;;2.08;;
31732;SDS011;18312;51.486;7.144;2022-09-25T23:33:37;6.35;;;2.08;;
31732;SDS011;18312;51.486;7.144;2022-09-25T23:36:05;2.75;;;1.30;;
31732;SDS011;18312;51.486;7.144;2022-09-25T23:38:33;3.22;;;1.83;;
31732;SDS011;18312;51.486;7.144;2022-09-25T23:41:01;8.60;;;2.78;;
31732;SDS011;18312;51.486;7.144;2022-09-25T23:43:37;3.75;;;2.13;;
31732;SDS011;18312;51.486;7.144;2022-09-25T23:46:03;2.55;;;1.92;;
31732;SDS011;18312;51.486;7.144;2022-09-25T23:48:33;4.20;;;1.77;;
31732;SDS011;18312;51.486;7.144;2022-09-25T23:51:01;3.15;;;2.60;;
31732;SDS011;18312;51.486;7.144;2022-09-25T23:53:27;10.45;;;2.40;;
31732;SDS011;18312;51.486;7.144;2022-09-25T23:55:54;4.80;;;1.80;;
31732;SDS011;18312;51.486;7.144;2022-09-25T23:58:21;2.92;;;1.65;;
